Time;durP1;ratioP1;P1;durP2;ratioP2;P2;SDS_P1;SDS_P2;PMS_P1;PMS_P2;Temp;Humidity;BMP_temperature;BMP_pressure;BME280_temperature;BME280_humidity;BME280_pressure;Samples;Min_cycle;Max_cycle;Signal;HPM_P1;HPM_P2
2022/04/11 00:01:35;;;;;;;;;;;1.70;95.60;;;;;;5043405;28;19955;-67
2022/04/11 00:04:01;;;;;;;;;;;1.70;95.70;;;;;;5043304;28;19931;-67
2022/04/11 00:06:27;;;;;;;;;;;1.60;95.70;;;;;;5043538;28;19916;-67
2022/04/11 00:08:52;;;;;;;;;;;1.70;95.70;;;;;;5043321;28;20116;-67
2022/04/11 00:11:18;;;;;;;;;;;1.70;95.60;;;;;;5042917;28;19972;-67
2022/04/11 00:13:44;;;;;;;;;;;1.70;95.70;;;;;;5043314;28;19909;-67
2022/04/11 00:16:09;;;;;;;;;;;1.60;95.90;;;;;;5042435;28;19915;-68
2022/04/11 00:18:35;;;;;;;;;;;1.60;95.90;;;;;;5043229;28;20003;-67
2022/04/11 00:21:01;;;;;;;;;;;1.70;95.70;;;;;;5042858;28;19909;-67
2022/04/11 00:23:27;;;;;;;;;;;1.60;95.70;;;;;;5043110;28;19912;-68
2022/04/11 00:25:52;;;;;;;;;;;1.60;95.90;;;;;;5043250;28;20200;-68
2022/04/11 00:28:18;;;;;;;;;;;1.50;95.90;;;;;;5043116;28;20136;-67
2022/04/11 00:30:44;;;;;;;;;;;1.50;96.00;;;;;;5042858;28;19913;-67
2022/04/11 00:33:09;;;;;;;;;;;1.40;96.00;;;;;;5042977;28;20228;-67
2022/04/11 00:35:35;;;;;;;;;;;1.40;96.10;;;;;;5125840;22;19959;-63
2022/04/11 00:38:01;;;;;;;;;;;1.40;96.10;;;;;;5108289;28;19908;-63
2022/04/11 00:40:26;;;;;;;;;;;1.30;96.10;;;;;;5104756;28;19911;-63
2022/04/11 00:42:52;;;;;;;;;;;1.30;96.20;;;;;;5103422;28;19908;-64
2022/04/11 00:45:18;;;;;;;;;;;1.30;96.30;;;;;;5104694;28;19908;-64
2022/04/11 00:47:45;;;;;;;;;;;1.20;96.30;;;;;;5104497;28;19923;-65
2022/04/11 00:50:11;;;;;;;;;;;1.20;96.40;;;;;;5104742;28;19916;-65
2022/04/11 00:52:39;;;;;;;;;;;1.20;96.40;;;;;;5104264;28;19947;-65
2022/04/11 00:55:07;;;;;;;;;;;1.20;96.20;;;;;;5104476;28;19930;-65
2022/04/11 00:57:33;;;;;;;;;;;1.20;96.40;;;;;;5104282;28;20107;-65
2022/04/11 00:59:59;;;;;;;;;;;1.20;96.50;;;;;;5104152;28;19908;-65
2022/04/11 01:02:25;;;;;;;;;;;1.20;96.30;;;;;;5103877;28;19912;-65
2022/04/11 01:04:51;;;;;;;;;;;1.20;96.30;;;;;;5103985;28;19940;-65
2022/04/11 01:07:19;;;;;;;;;;;1.10;96.30;;;;;;5103956;28;19915;-66
2022/04/11 01:09:44;;;;;;;;;;;1.00;96.40;;;;;;5102784;28;19912;-66
2022/04/11 01:12:11;;;;;;;;;;;1.00;96.30;;;;;;5102569;28;19908;-66
2022/04/11 01:14:37;;;;;;;;;;;1.00;96.30;;;;;;5102705;28;19915;-65
2022/04/11 01:17:03;;;;;;;;;;;1.00;96.40;;;;;;5103870;28;19908;-65
2022/04/11 01:19:29;;;;;;;;;;;0.90;96.50;;;;;;5102529;28;19915;-65
2022/04/11 01:21:54;;;;;;;;;;;0.90;96.60;;;;;;5103514;28;19908;-64
2022/04/11 01:24:20;;;;;;;;;;;1.00;96.50;;;;;;5103591;28;19939;-64
2022/04/11 01:26:47;;;;;;;;;;;1.00;96.40;;;;;;5103089;28;19940;-64
2022/04/11 01:29:13;;;;;;;;;;;1.00;96.40;;;;;;5103273;28;19912;-65
2022/04/11 01:31:39;;;;;;;;;;;1.00;96.30;;;;;;5102145;28;19908;-65
2022/04/11 01:34:05;;;;;;;;;;;0.90;96.50;;;;;;5103405;28;19958;-64
2022/04/11 01:36:30;;;;;;;;;;;0.80;96.80;;;;;;5103444;28;19915;-65
2022/04/11 01:38:56;;;;;;;;;;;0.80;96.90;;;;;;5103523;28;19988;-65
2022/04/11 01:41:22;;;;;;;;;;;0.80;96.90;;;;;;5118974;28;19915;-65
2022/04/11 01:43:47;;;;;;;;;;;0.70;96.90;;;;;;5103416;28;19915;-65
2022/04/11 01:46:13;;;;;;;;;;;0.70;96.90;;;;;;5103149;28;20175;-65
2022/04/11 01:48:39;;;;;;;;;;;0.70;97.10;;;;;;5101028;28;19957;-65
2022/04/11 01:51:04;;;;;;;;;;;0.60;97.20;;;;;;5101935;28;19915;-66
2022/04/11 01:53:30;;;;;;;;;;;0.60;97.40;;;;;;5102208;28;19916;-65
2022/04/11 01:55:56;;;;;;;;;;;0.60;97.50;;;;;;5102246;28;20047;-65
2022/04/11 01:58:21;;;;;;;;;;;0.70;97.30;;;;;;5102049;28;19908;-66
2022/04/11 02:00:47;;;;;;;;;;;0.60;97.40;;;;;;5101926;28;20145;-65
2022/04/11 02:03:13;;;;;;;;;;;0.60;97.40;;;;;;5102087;28;19915;-65
2022/04/11 02:05:39;;;;;;;;;;;0.60;97.30;;;;;;5102120;28;19916;-65
2022/04/11 02:08:07;;;;;;;;;;;0.70;97.40;;;;;;5102010;28;19977;-66
2022/04/11 02:10:39;;;;;;;;;;;0.60;97.50;;;;;;5101920;28;20012;-66
2022/04/11 02:13:05;;;;;;;;;;;0.60;97.50;;;;;;5084011;28;19907;-66
2022/04/11 02:15:31;;;;;;;;;;;0.60;97.60;;;;;;5100680;28;19914;-66
2022/04/11 02:17:57;;;;;;;;;;;0.60;97.70;;;;;;5103197;28;20085;-66
2022/04/11 02:20:23;;;;;;;;;;;0.60;97.60;;;;;;5122342;28;19907;-65
2022/04/11 02:22:53;;;;;;;;;;;0.60;97.50;;;;;;5122375;28;20014;-66
2022/04/11 02:25:24;;;;;;;;;;;0.60;97.50;;;;;;5122253;28;19907;-66
2022/04/11 02:27:50;;;;;;;;;;;0.60;97.60;;;;;;5122484;28;19908;-66
2022/04/11 02:30:16;;;;;;;;;;;0.70;97.50;;;;;;5122383;28;19953;-66
2022/04/11 02:32:42;;;;;;;;;;;0.70;97.40;;;;;;5104025;28;19919;-66
2022/04/11 02:35:08;;;;;;;;;;;0.60;97.40;;;;;;5103860;28;19919;-66
2022/04/11 02:37:34;;;;;;;;;;;0.60;97.50;;;;;;5122255;28;19907;-66
2022/04/11 02:40:00;;;;;;;;;;;0.50;97.50;;;;;;5125180;28;20084;-66
2022/04/11 02:42:27;;;;;;;;;;;0.50;97.60;;;;;;5125873;28;19908;-65
2022/04/11 02:44:53;;;;;;;;;;;0.50;97.60;;;;;;5125984;28;19915;-66
2022/04/11 02:47:19;;;;;;;;;;;0.60;97.50;;;;;;5107919;28;19926;-66
2022/04/11 02:49:45;;;;;;;;;;;0.50;97.60;;;;;;5126333;28;20240;-66
2022/04/11 02:52:10;;;;;;;;;;;0.50;97.60;;;;;;5125650;28;19908;-65
2022/04/11 02:54:37;;;;;;;;;;;0.50;97.60;;;;;;5125798;28;19908;-66
2022/04/11 02:57:03;;;;;;;;;;;0.40;97.70;;;;;;5107686;28;19908;-66
2022/04/11 02:59:28;;;;;;;;;;;0.40;97.80;;;;;;5125833;28;19907;-66
2022/04/11 03:01:55;;;;;;;;;;;0.40;97.80;;;;;;5125453;28;19975;-66
2022/04/11 03:04:20;;;;;;;;;;;0.50;97.70;;;;;;5125787;28;19915;-66
2022/04/11 03:06:46;;;;;;;;;;;0.60;97.30;;;;;;5102926;28;19939;-66
2022/04/11 03:09:12;;;;;;;;;;;0.70;97.10;;;;;;5104927;28;20264;-66
2022/04/11 03:11:37;;;;;;;;;;;0.60;97.10;;;;;;5104743;28;19931;-65
2022/04/11 03:14:03;;;;;;;;;;;0.50;97.20;;;;;;5105181;28;19919;-66
2022/04/11 03:16:29;;;;;;;;;;;0.50;97.60;;;;;;5105267;28;20010;-66
2022/04/11 03:18:54;;;;;;;;;;;0.40;97.70;;;;;;5104964;28;20236;-66
2022/04/11 03:21:20;;;;;;;;;;;0.40;97.60;;;;;;5104680;28;19916;-66
2022/04/11 03:23:46;;;;;;;;;;;0.40;97.70;;;;;;5104869;28;19927;-65
2022/04/11 03:26:11;;;;;;;;;;;0.30;97.80;;;;;;5104803;28;19995;-66
2022/04/11 03:28:37;;;;;;;;;;;0.40;97.80;;;;;;5104822;28;19994;-65
2022/04/11 03:31:03;;;;;;;;;;;0.30;97.90;;;;;;5104533;28;20001;-65
2022/04/11 03:33:28;;;;;;;;;;;0.30;98.00;;;;;;5104714;28;19916;-66
2022/04/11 03:35:54;;;;;;;;;;;0.30;98.00;;;;;;5104514;28;19976;-65
2022/04/11 03:38:19;;;;;;;;;;;0.30;98.00;;;;;;5104672;28;19931;-66
2022/04/11 03:40:45;;;;;;;;;;;0.30;98.10;;;;;;5104442;28;19927;-65
2022/04/11 03:43:11;;;;;;;;;;;0.20;98.10;;;;;;5104507;28;19993;-66
2022/04/11 03:45:37;;;;;;;;;;;0.20;98.20;;;;;;5104576;28;19923;-66
2022/04/11 03:48:02;;;;;;;;;;;0.20;98.10;;;;;;5104528;28;19954;-66
2022/04/11 03:50:28;;;;;;;;;;;0.30;98.10;;;;;;5103209;28;19915;-65
2022/04/11 03:52:54;;;;;;;;;;;0.20;98.20;;;;;;5104105;28;19979;-64
2022/04/11 03:55:20;;;;;;;;;;;0.20;98.20;;;;;;5104268;28;19916;-65
2022/04/11 03:57:45;;;;;;;;;;;0.10;98.20;;;;;;5086314;28;19908;-66
2022/04/11 04:00:11;;;;;;;;;;;0.20;98.20;;;;;;5104182;28;19939;-65
2022/04/11 04:02:37;;;;;;;;;;;0.20;98.20;;;;;;5103881;28;19908;-65
2022/04/11 04:05:03;;;;;;;;;;;0.20;98.30;;;;;;5104093;28;19930;-65
2022/04/11 04:07:28;;;;;;;;;;;0.20;98.30;;;;;;5104073;28;19946;-65
2022/04/11 04:09:54;;;;;;;;;;;0.30;98.30;;;;;;5103914;28;19912;-65
2022/04/11 04:12:20;;;;;;;;;;;0.30;98.30;;;;;;5103765;28;19908;-66
2022/04/11 04:14:49;;;;;;;;;;;0.30;98.20;;;;;;5103876;28;19931;-66
2022/04/11 04:17:14;;;;;;;;;;;0.30;98.10;;;;;;5085303;28;20105;-66
2022/04/11 04:19:41;;;;;;;;;;;0.30;98.10;;;;;;5103885;28;19940;-66
2022/04/11 04:22:06;;;;;;;;;;;0.30;98.10;;;;;;5103404;28;19945;-66
2022/04/11 04:24:34;;;;;;;;;;;0.20;98.10;;;;;;5103598;28;19912;-65
2022/04/11 04:27:01;;;;;;;;;;;0.20;98.00;;;;;;5103580;28;19908;-65
2022/04/11 04:29:27;;;;;;;;;;;0.30;97.90;;;;;;5103439;28;19912;-65
2022/04/11 04:31:54;;;;;;;;;;;0.30;98.00;;;;;;5103384;28;19923;-65
2022/04/11 04:34:20;;;;;;;;;;;0.30;98.00;;;;;;5103542;28;19912;-65
2022/04/11 04:36:47;;;;;;;;;;;0.40;97.70;;;;;;5103473;28;19908;-65
2022/04/11 04:39:12;;;;;;;;;;;0.40;97.80;;;;;;5103428;28;20229;-65
2022/04/11 04:41:38;;;;;;;;;;;0.50;97.50;;;;;;5102999;28;19979;-66
2022/04/11 04:44:07;;;;;;;;;;;0.50;97.40;;;;;;5103380;28;19965;-65
2022/04/11 04:46:33;;;;;;;;;;;0.40;97.50;;;;;;5103201;28;19908;-66
2022/04/11 04:48:59;;;;;;;;;;;0.40;97.70;;;;;;5103188;28;20040;-66
2022/04/11 04:51:25;;;;;;;;;;;0.30;97.80;;;;;;5102637;28;20262;-65
2022/04/11 04:53:50;;;;;;;;;;;0.30;97.90;;;;;;5102984;28;19912;-66
2022/04/11 04:56:16;;;;;;;;;;;0.30;97.90;;;;;;5102705;28;19908;-65
2022/04/11 04:58:42;;;;;;;;;;;0.30;98.00;;;;;;5102986;28;19912;-65
2022/04/11 05:01:08;;;;;;;;;;;0.30;98.00;;;;;;5102305;28;19923;-66
2022/04/11 05:03:34;;;;;;;;;;;0.30;98.00;;;;;;5102918;28;19978;-66
2022/04/11 05:06:00;;;;;;;;;;;0.40;98.00;;;;;;5102989;28;19939;-67
2022/04/11 05:08:25;;;;;;;;;;;0.40;97.70;;;;;;5103023;28;19923;-66
2022/04/11 05:10:51;;;;;;;;;;;0.40;97.80;;;;;;5102524;28;20007;-66
2022/04/11 05:13:17;;;;;;;;;;;0.50;97.70;;;;;;5102841;28;19908;-65
2022/04/11 05:15:46;;;;;;;;;;;0.60;97.70;;;;;;5105138;28;20169;-65
2022/04/11 05:18:13;;;;;;;;;;;0.70;97.20;;;;;;5114480;28;20226;-65
2022/04/11 05:20:40;;;;;;;;;;;0.70;97.00;;;;;;5102414;28;20195;-65
2022/04/11 05:23:05;;;;;;;;;;;0.70;97.00;;;;;;5078473;28;20138;-65
2022/04/11 05:25:31;;;;;;;;;;;0.70;97.10;;;;;;5100371;28;20021;-65
2022/04/11 05:27:57;;;;;;;;;;;0.90;97.00;;;;;;5101123;28;19970;-65
2022/04/11 05:30:22;;;;;;;;;;;0.90;96.70;;;;;;5106540;28;19912;-66
2022/04/11 05:32:48;;;;;;;;;;;0.90;96.60;;;;;;5109285;28;19908;-65
2022/04/11 05:35:14;;;;;;;;;;;0.90;96.60;;;;;;5113287;28;20200;-64
2022/04/11 05:37:39;;;;;;;;;;;0.90;96.70;;;;;;5102077;28;19908;-65
2022/04/11 05:40:09;;;;;;;;;;;1.00;96.70;;;;;;5102080;28;19908;-65
2022/04/11 05:42:37;;;;;;;;;;;1.00;96.80;;;;;;5101906;28;19908;-65
2022/04/11 05:45:05;;;;;;;;;;;1.00;96.80;;;;;;5102080;28;20226;-65
2022/04/11 05:47:31;;;;;;;;;;;1.10;97.00;;;;;;5110315;28;19918;-65
2022/04/11 05:49:57;;;;;;;;;;;1.30;97.10;;;;;;5122297;28;19935;-65
2022/04/11 05:52:23;;;;;;;;;;;1.40;96.40;;;;;;5122292;28;19908;-65
2022/04/11 05:54:48;;;;;;;;;;;1.50;95.70;;;;;;5122334;28;19907;-65
2022/04/11 05:57:14;;;;;;;;;;;1.50;95.90;;;;;;5122382;28;19966;-65
2022/04/11 05:59:40;;;;;;;;;;;1.60;95.80;;;;;;5122402;28;19931;-65
2022/04/11 06:02:05;;;;;;;;;;;1.70;95.90;;;;;;5122251;28;20187;-65
2022/04/11 06:04:31;;;;;;;;;;;1.70;95.70;;;;;;5105323;28;19977;-65
2022/04/11 06:06:57;;;;;;;;;;;1.70;95.60;;;;;;5112126;28;20314;-65
2022/04/11 06:09:23;;;;;;;;;;;1.80;95.40;;;;;;5092061;28;20014;-65
2022/04/11 06:11:49;;;;;;;;;;;1.90;95.30;;;;;;5101110;28;19912;-65
2022/04/11 06:14:14;;;;;;;;;;;2.00;95.20;;;;;;5103540;28;19908;-64
2022/04/11 06:16:40;;;;;;;;;;;2.10;95.30;;;;;;5106407;28;19971;-65
2022/04/11 06:19:06;;;;;;;;;;;2.30;95.20;;;;;;5104926;28;20119;-65
2022/04/11 06:21:31;;;;;;;;;;;2.40;94.90;;;;;;5105194;28;19908;-65
2022/04/11 06:23:57;;;;;;;;;;;2.50;94.70;;;;;;5105419;28;19916;-66
2022/04/11 06:26:22;;;;;;;;;;;2.70;94.60;;;;;;5105638;28;19916;-65
2022/04/11 06:28:48;;;;;;;;;;;2.70;94.00;;;;;;5105543;28;19923;-66
2022/04/11 06:31:14;;;;;;;;;;;2.80;94.30;;;;;;5104468;28;19985;-66
2022/04/11 06:33:40;;;;;;;;;;;2.80;94.00;;;;;;5119117;28;19991;-65
2022/04/11 06:36:06;;;;;;;;;;;3.00;94.20;;;;;;5147483;22;19950;-71
2022/04/11 06:38:31;;;;;;;;;;;3.10;93.80;;;;;;5127028;28;20230;-70
2022/04/11 06:40:57;;;;;;;;;;;3.10;93.80;;;;;;5108883;28;19907;-70
2022/04/11 06:43:23;;;;;;;;;;;3.20;93.60;;;;;;5127149;28;19908;-70
2022/04/11 06:45:49;;;;;;;;;;;3.40;93.30;;;;;;5129778;28;19908;-70
2022/04/11 06:48:15;;;;;;;;;;;3.50;93.00;;;;;;5123853;28;20206;-73
2022/04/11 06:50:42;;;;;;;;;;;3.50;93.00;;;;;;5107983;28;19948;-73
2022/04/11 06:53:09;;;;;;;;;;;3.50;92.90;;;;;;5126732;28;20091;-68
2022/04/11 06:55:35;;;;;;;;;;;3.50;92.90;;;;;;5091712;28;19956;-70
2022/04/11 06:58:01;;;;;;;;;;;3.60;93.00;;;;;;5108709;28;19975;-71
2022/04/11 07:00:27;;;;;;;;;;;3.60;93.10;;;;;;5108184;28;20087;-71
2022/04/11 07:02:53;;;;;;;;;;;3.50;93.00;;;;;;5108211;28;19907;-68
2022/04/11 07:05:19;;;;;;;;;;;3.60;93.10;;;;;;5126707;28;19935;-67
2022/04/11 07:07:44;;;;;;;;;;;3.60;93.10;;;;;;5126505;28;20278;-72
2022/04/11 07:10:10;;;;;;;;;;;3.60;93.10;;;;;;5126446;28;20203;-69
2022/04/11 07:12:37;;;;;;;;;;;3.60;93.10;;;;;;5119612;28;19943;-71
2022/04/11 07:15:03;;;;;;;;;;;3.80;93.00;;;;;;5088240;28;19993;-69
2022/04/11 07:17:29;;;;;;;;;;;3.90;92.90;;;;;;5106480;28;19969;-69
2022/04/11 07:19:55;;;;;;;;;;;4.00;92.70;;;;;;5105762;28;19915;-69
2022/04/11 07:22:21;;;;;;;;;;;4.00;92.80;;;;;;5105687;28;19908;-69
2022/04/11 07:24:47;;;;;;;;;;;4.00;93.10;;;;;;5053970;28;19908;-69
2022/04/11 07:27:12;;;;;;;;;;;4.10;93.00;;;;;;5105816;28;19912;-69
2022/04/11 07:29:38;;;;;;;;;;;4.10;93.00;;;;;;5105393;28;19983;-71
2022/04/11 07:32:04;;;;;;;;;;;4.40;92.50;;;;;;5106010;28;19926;-68
2022/04/11 07:34:30;;;;;;;;;;;4.70;92.00;;;;;;5128114;27;19919;-68
2022/04/11 07:36:55;;;;;;;;;;;4.90;91.60;;;;;;5137816;27;19907;-67
2022/04/11 07:39:23;;;;;;;;;;;5.00;91.30;;;;;;5138107;27;19908;-68
2022/04/11 07:41:55;;;;;;;;;;;5.00;91.40;;;;;;5146150;27;19907;-68
2022/04/11 07:44:21;;;;;;;;;;;5.00;91.60;;;;;;5146454;27;19918;-68
2022/04/11 07:46:47;;;;;;;;;;;5.30;92.90;;;;;;5111063;27;19908;-74
2022/04/11 07:49:13;;;;;;;;;;;5.50;91.30;;;;;;5112427;28;19948;-73
2022/04/11 07:51:38;;;;;;;;;;;5.40;91.00;;;;;;5107095;28;19912;-73
2022/04/11 07:54:04;;;;;;;;;;;5.50;91.30;;;;;;5122453;28;19912;-72
2022/04/11 07:56:30;;;;;;;;;;;5.70;90.80;;;;;;5097651;28;19912;-71
2022/04/11 07:58:56;;;;;;;;;;;5.70;90.90;;;;;;5107842;28;19911;-71
2022/04/11 08:01:22;;;;;;;;;;;5.70;90.30;;;;;;5095978;28;20228;-72
2022/04/11 08:03:48;;;;;;;;;;;5.90;89.30;;;;;;5100912;28;19911;-70
2022/04/11 08:06:14;;;;;;;;;;;5.90;89.70;;;;;;5115897;28;19912;-70
2022/04/11 08:08:46;;;;;;;;;;;5.90;90.20;;;;;;5097303;28;19920;-69
2022/04/11 08:11:18;;;;;;;;;;;6.10;90.40;;;;;;5119117;28;19944;-72
2022/04/11 08:13:44;;;;;;;;;;;6.20;90.40;;;;;;5110125;28;19911;-72
2022/04/11 08:16:10;;;;;;;;;;;6.30;89.10;;;;;;5097453;28;19911;-74
2022/04/11 08:18:36;;;;;;;;;;;6.50;88.00;;;;;;5084781;28;20135;-72
2022/04/11 08:21:02;;;;;;;;;;;6.70;85.40;;;;;;5089485;28;19989;-71
2022/04/11 08:23:28;;;;;;;;;;;7.00;83.70;;;;;;5101072;28;19993;-72
2022/04/11 08:25:53;;;;;;;;;;;7.10;82.90;;;;;;5122326;28;19920;-68
2022/04/11 08:28:22;;;;;;;;;;;7.10;82.50;;;;;;5109566;28;19983;-70
2022/04/11 08:30:48;;;;;;;;;;;7.30;82.20;;;;;;5089527;28;19960;-69
2022/04/11 08:33:14;;;;;;;;;;;7.50;80.10;;;;;;5116450;28;19990;-69
2022/04/11 08:35:40;;;;;;;;;;;7.60;79.60;;;;;;5112389;28;19911;-74
2022/04/11 08:38:05;;;;;;;;;;;7.70;79.00;;;;;;5085883;28;20088;-75
2022/04/11 08:40:31;;;;;;;;;;;7.80;77.90;;;;;;5115898;28;19911;-75
2022/04/11 08:42:59;;;;;;;;;;;7.80;76.60;;;;;;5085155;28;19943;-75
2022/04/11 08:45:25;;;;;;;;;;;7.80;76.10;;;;;;5112892;27;20245;-75
2022/04/11 08:47:53;;;;;;;;;;;7.90;73.60;;;;;;5107527;28;19912;-67
2022/04/11 08:50:19;;;;;;;;;;;8.20;78.00;;;;;;5126179;27;19943;-73
2022/04/11 08:52:45;;;;;;;;;;;8.40;73.50;;;;;;5111141;28;19935;-73
2022/04/11 08:55:11;;;;;;;;;;;8.40;70.20;;;;;;5078749;28;19912;-72
2022/04/11 08:57:37;;;;;;;;;;;8.40;71.90;;;;;;5121490;28;19971;-73
2022/04/11 09:00:11;;;;;;;;;;;8.40;72.10;;;;;;5092077;28;20122;-73
2022/04/11 09:02:37;;;;;;;;;;;8.40;71.40;;;;;;5077829;28;19912;-72
2022/04/11 09:05:03;;;;;;;;;;;8.60;70.50;;;;;;5104625;28;19908;-72
2022/04/11 09:07:55;;;;;;;;;;;8.60;68.80;;;;;;5097095;28;19973;-73
2022/04/11 09:10:23;;;;;;;;;;;8.60;70.50;;;;;;5091674;28;19923;-72
2022/04/11 09:12:53;;;;;;;;;;;8.70;70.80;;;;;;5098173;28;19912;-72
2022/04/11 09:15:19;;;;;;;;;;;8.80;68.70;;;;;;5071364;28;19911;-77
2022/04/11 09:17:46;;;;;;;;;;;8.90;67.40;;;;;;5078480;28;19919;-77
2022/04/11 09:20:19;;;;;;;;;;;9.00;68.20;;;;;;5083735;28;19945;-77
2022/04/11 09:22:44;;;;;;;;;;;9.10;67.10;;;;;;5102935;28;20124;-76
2022/04/11 09:25:23;;;;;;;;;;;9.20;64.60;;;;;;5115008;28;19947;-75
2022/04/11 09:28:09;;;;;;;;;;;9.20;65.40;;;;;;5104193;28;19934;-70
2022/04/11 09:30:35;;;;;;;;;;;9.20;65.90;;;;;;5093635;28;19923;-69
2022/04/11 09:33:02;;;;;;;;;;;9.20;65.80;;;;;;5113409;28;19914;-69
2022/04/11 09:35:32;;;;;;;;;;;9.30;66.60;;;;;;5111674;28;19915;-69
2022/04/11 09:38:07;;;;;;;;;;;9.10;65.80;;;;;;5100763;28;19956;-69
2022/04/11 09:40:41;;;;;;;;;;;9.10;68.00;;;;;;5103053;28;19927;-69
2022/04/11 09:43:07;;;;;;;;;;;9.40;62.60;;;;;;5088958;28;19912;-72
2022/04/11 09:45:41;;;;;;;;;;;9.40;61.50;;;;;;5102390;28;19958;-72
2022/04/11 09:48:08;;;;;;;;;;;9.50;62.10;;;;;;5084082;28;19919;-73
2022/04/11 09:50:34;;;;;;;;;;;9.50;62.60;;;;;;5105603;28;19912;-73
2022/04/11 09:53:33;;;;;;;;;;;9.30;62.90;;;;;;5121486;28;20111;-73
2022/04/11 09:56:04;;;;;;;;;;;9.60;61.70;;;;;;5089651;28;19912;-73
2022/04/11 09:58:30;;;;;;;;;;;9.70;60.90;;;;;;5126291;27;20229;-73
2022/04/11 10:00:56;;;;;;;;;;;9.70;61.80;;;;;;5124688;27;19912;-73
2022/04/11 10:03:25;;;;;;;;;;;9.80;58.50;;;;;;5114729;28;19958;-72
2022/04/11 10:05:50;;;;;;;;;;;10.00;57.30;;;;;;5095417;28;19939;-73
2022/04/11 10:08:16;;;;;;;;;;;9.90;56.80;;;;;;5113022;28;19927;-73
2022/04/11 10:10:42;;;;;;;;;;;9.80;57.40;;;;;;5055733;28;19916;-72
2022/04/11 10:13:12;;;;;;;;;;;9.90;57.10;;;;;;5096984;28;19934;-73
2022/04/11 10:15:38;;;;;;;;;;;9.90;57.10;;;;;;5051994;28;19923;-72
2022/04/11 10:18:05;;;;;;;;;;;10.10;56.70;;;;;;5101787;28;19948;-73
2022/04/11 10:20:35;;;;;;;;;;;10.30;59.00;;;;;;5099642;28;19919;-73
2022/04/11 10:23:13;;;;;;;;;;;10.50;58.60;;;;;;5078064;28;19950;-73
2022/04/11 10:25:49;;;;;;;;;;;10.70;58.40;;;;;;5111329;28;20146;-73
2022/04/11 10:28:25;;;;;;;;;;;11.00;54.70;;;;;;5083617;28;19919;-73
2022/04/11 10:31:10;;;;;;;;;;;11.10;52.60;;;;;;5072764;28;19920;-73
2022/04/11 10:33:55;;;;;;;;;;;11.10;53.30;;;;;;5094332;28;19919;-74
2022/04/11 10:36:35;;;;;;;;;;;11.20;53.20;;;;;;5098261;28;19912;-73
2022/04/11 10:39:12;;;;;;;;;;;11.20;52.70;;;;;;5097297;28;20202;-73
2022/04/11 10:41:56;;;;;;;;;;;11.50;50.70;;;;;;5110246;28;19912;-73
2022/04/11 10:44:51;;;;;;;;;;;11.70;49.60;;;;;;5110995;28;19911;-73
2022/04/11 10:47:21;;;;;;;;;;;11.80;49.60;;;;;;5093919;28;19911;-73
2022/04/11 10:49:49;;;;;;;;;;;12.00;49.70;;;;;;5114450;28;20115;-73
2022/04/11 10:52:32;;;;;;;;;;;12.00;49.50;;;;;;5111979;28;20096;-73
2022/04/11 10:55:04;;;;;;;;;;;12.30;48.30;;;;;;5084648;28;19981;-73
2022/04/11 10:57:43;;;;;;;;;;;12.50;48.10;;;;;;5102713;28;20353;-73
2022/04/11 11:00:09;;;;;;;;;;;12.50;47.30;;;;;;5104258;28;19908;-73
2022/04/11 11:02:56;;;;;;;;;;;12.60;47.90;;;;;;5106033;28;19930;-73
2022/04/11 11:05:38;;;;;;;;;;;12.80;47.30;;;;;;5106093;28;19961;-73
2022/04/11 11:08:09;;;;;;;;;;;13.00;47.50;;;;;;5109061;28;19912;-73
2022/04/11 11:10:59;;;;;;;;;;;13.00;46.70;;;;;;5130670;27;19955;-74
2022/04/11 11:13:40;;;;;;;;;;;13.20;48.50;;;;;;5118776;27;20225;-72
2022/04/11 11:16:10;;;;;;;;;;;13.60;47.90;;;;;;5142881;27;19907;-73
2022/04/11 11:18:51;;;;;;;;;;;13.90;47.40;;;;;;5147155;27;20004;-73
2022/04/11 11:21:20;;;;;;;;;;;14.00;44.20;;;;;;5146857;27;19915;-74
2022/04/11 11:24:03;;;;;;;;;;;14.10;43.10;;;;;;5146972;27;19908;-69
2022/04/11 11:26:45;;;;;;;;;;;14.30;46.70;;;;;;5128679;27;20206;-74
2022/04/11 11:29:16;;;;;;;;;;;14.60;43.00;;;;;;5122643;27;20214;-71
2022/04/11 11:31:42;;;;;;;;;;;14.70;41.90;;;;;;5128692;27;20194;-70
2022/04/11 11:34:12;;;;;;;;;;;14.90;41.50;;;;;;5146626;27;19928;-70
2022/04/11 11:36:38;;;;;;;;;;;15.10;42.50;;;;;;5111666;27;19915;-70
2022/04/11 11:39:21;;;;;;;;;;;15.40;41.00;;;;;;5128508;27;19907;-70
2022/04/11 11:41:50;;;;;;;;;;;15.60;39.50;;;;;;5128185;27;20110;-70
2022/04/11 11:44:16;;;;;;;;;;;15.90;39.50;;;;;;5128900;27;19907;-71
2022/04/11 11:46:48;;;;;;;;;;;16.10;39.10;;;;;;5128326;27;19954;-70
2022/04/11 11:49:14;;;;;;;;;;;16.00;38.00;;;;;;5087166;28;19951;-70
2022/04/11 11:51:40;;;;;;;;;;;15.90;40.00;;;;;;5104871;28;19908;-70
2022/04/11 11:54:05;;;;;;;;;;;16.40;38.00;;;;;;5126128;27;20201;-70
2022/04/11 11:56:44;;;;;;;;;;;16.80;37.50;;;;;;5137728;27;19919;-70
2022/04/11 11:59:10;;;;;;;;;;;16.80;36.80;;;;;;5107853;28;20106;-70
2022/04/11 12:01:37;;;;;;;;;;;17.00;36.90;;;;;;5107201;28;19908;-71
2022/04/11 12:04:18;;;;;;;;;;;17.40;36.60;;;;;;5125634;28;20146;-70
2022/04/11 12:06:45;;;;;;;;;;;17.80;36.00;;;;;;5125603;28;19961;-70
2022/04/11 12:09:11;;;;;;;;;;;18.80;35.10;;;;;;5107621;28;20091;-70
2022/04/11 12:11:37;;;;;;;;;;;19.90;33.50;;;;;;5124333;28;19936;-70
2022/04/11 12:14:03;;;;;;;;;;;21.00;30.70;;;;;;5090521;28;20263;-70
2022/04/11 12:16:29;;;;;;;;;;;22.10;30.80;;;;;;5107274;28;19908;-70
2022/04/11 12:18:56;;;;;;;;;;;22.90;29.40;;;;;;5107547;28;19908;-70
2022/04/11 12:21:32;;;;;;;;;;;23.40;28.20;;;;;;5125597;28;20236;-71
2022/04/11 12:23:58;;;;;;;;;;;24.50;27.20;;;;;;5126263;28;20126;-71
2022/04/11 12:26:31;;;;;;;;;;;24.50;26.80;;;;;;5107062;28;19907;-70
2022/04/11 12:28:57;;;;;;;;;;;25.00;26.40;;;;;;5124828;28;19923;-71
2022/04/11 12:31:23;;;;;;;;;;;25.10;26.30;;;;;;5124628;28;20145;-71
2022/04/11 12:33:50;;;;;;;;;;;25.60;26.30;;;;;;5121747;28;19915;-71
2022/04/11 12:36:30;;;;;;;;;;;26.20;26.00;;;;;;5103516;22;20145;-68
2022/04/11 12:39:00;;;;;;;;;;;28.00;24.70;;;;;;5063339;28;19909;-68
2022/04/11 12:41:31;;;;;;;;;;;29.10;23.80;;;;;;5056761;28;20223;-69
2022/04/11 12:44:09;;;;;;;;;;;28.90;24.10;;;;;;5058827;28;19909;-69
2022/04/11 12:46:40;;;;;;;;;;;30.00;24.10;;;;;;5048528;28;19928;-68
2022/04/11 12:49:06;;;;;;;;;;;30.60;23.80;;;;;;5057963;28;19923;-68
2022/04/11 12:51:31;;;;;;;;;;;30.20;23.00;;;;;;5043680;28;20125;-68
2022/04/11 12:54:02;;;;;;;;;;;30.80;23.00;;;;;;5047711;28;19913;-68
2022/04/11 12:56:38;;;;;;;;;;;31.20;24.00;;;;;;5049126;28;19920;-68
2022/04/11 12:59:04;;;;;;;;;;;31.70;22.50;;;;;;5063727;28;19955;-68
2022/04/11 13:01:50;;;;;;;;;;;30.90;22.10;;;;;;5063484;28;19913;-67
2022/04/11 13:04:16;;;;;;;;;;;32.00;22.30;;;;;;5063690;28;19915;-68
2022/04/11 13:06:41;;;;;;;;;;;31.80;22.10;;;;;;5063529;28;19975;-67
2022/04/11 13:09:07;;;;;;;;;;;31.30;22.20;;;;;;5063513;28;19912;-68
2022/04/11 13:11:43;;;;;;;;;;;31.80;22.60;;;;;;5063309;28;19909;-68
2022/04/11 13:14:09;;;;;;;;;;;32.60;22.00;;;;;;5063489;28;19909;-69
2022/04/11 13:19:19;;;;;;;;;;;33.70;21.60;;;;;;5063566;28;19916;-69
2022/04/11 13:21:46;;;;;;;;;;;34.10;21.20;;;;;;5063251;28;19909;-70
2022/04/11 13:24:12;;;;;;;;;;;33.80;20.80;;;;;;5063209;28;19935;-71
2022/04/11 13:26:37;;;;;;;;;;;34.70;21.40;;;;;;5063248;28;19909;-69
2022/04/11 13:29:03;;;;;;;;;;;35.70;21.50;;;;;;5063366;28;19913;-69
2022/04/11 13:31:29;;;;;;;;;;;37.40;20.20;;;;;;5062928;28;20143;-68
2022/04/11 13:33:54;;;;;;;;;;;36.30;20.20;;;;;;5063323;28;19909;-68
2022/04/11 13:36:20;;;;;;;;;;;35.10;20.70;;;;;;5062869;28;20191;-68
2022/04/11 13:38:46;;;;;;;;;;;33.70;20.80;;;;;;5058966;28;19988;-68
2022/04/11 13:41:12;;;;;;;;;;;33.70;21.20;;;;;;5054566;28;19912;-66
2022/04/11 13:43:38;;;;;;;;;;;35.10;20.50;;;;;;5058197;28;19916;-65
2022/04/11 13:46:03;;;;;;;;;;;35.00;20.90;;;;;;5059524;28;20264;-67
2022/04/11 13:48:29;;;;;;;;;;;34.90;20.80;;;;;;5061376;28;19920;-67
2022/04/11 13:50:55;;;;;;;;;;;34.20;20.50;;;;;;5061543;28;19908;-66
2022/04/11 13:53:20;;;;;;;;;;;34.80;20.50;;;;;;5061702;28;19979;-69
2022/04/11 13:55:46;;;;;;;;;;;35.00;20.40;;;;;;5057398;28;19920;-69
2022/04/11 13:58:12;;;;;;;;;;;33.70;21.10;;;;;;5061445;28;20147;-71
2022/04/11 14:00:41;;;;;;;;;;;31.30;22.10;;;;;;5054696;28;19944;-69
2022/04/11 14:03:08;;;;;;;;;;;29.70;22.80;;;;;;5053016;28;20000;-70
2022/04/11 14:05:33;;;;;;;;;;;28.40;23.70;;;;;;5058262;28;20219;-68
2022/04/11 14:07:59;;;;;;;;;;;27.60;23.40;;;;;;5061673;28;19909;-68
2022/04/11 14:10:25;;;;;;;;;;;28.40;23.70;;;;;;5061245;28;19920;-68
2022/04/11 14:12:51;;;;;;;;;;;29.40;22.90;;;;;;5061037;28;19909;-67
2022/04/11 14:15:16;;;;;;;;;;;29.80;22.80;;;;;;5043712;28;19998;-67
2022/04/11 14:17:42;;;;;;;;;;;29.20;22.90;;;;;;5061673;28;19972;-68
2022/04/11 14:20:11;;;;;;;;;;;30.20;22.30;;;;;;5060883;28;19912;-68
2022/04/11 14:22:36;;;;;;;;;;;30.20;22.40;;;;;;5051222;28;20230;-67
2022/04/11 14:25:03;;;;;;;;;;;29.50;22.60;;;;;;5042930;28;19913;-68
2022/04/11 14:27:29;;;;;;;;;;;29.20;23.00;;;;;;5041550;28;19967;-67
2022/04/11 14:29:54;;;;;;;;;;;29.30;23.10;;;;;;5041706;28;19913;-67
2022/04/11 14:32:20;;;;;;;;;;;28.70;23.10;;;;;;5041311;28;19910;-68